Time;durP1;ratioP1;P1;durP2;ratioP2;P2;SDS_P1;SDS_P2;PMS_P1;PMS_P2;Temp;Humidity;BMP_temperature;BMP_pressure;BME280_temperature;BME280_humidity;BME280_pressure;Samples;Min_cycle;Max_cycle;Signal;HPM_P1;HPM_P2
2024/01/31 00:01:32;;;;;;;4.32;1.35;;;7.50;99.90;;;;;;5068972;28;20078;-51
2024/01/31 00:03:57;;;;;;;7.78;2.72;;;7.50;99.90;;;;;;5068693;28;20037;-50
2024/01/31 00:06:23;;;;;;;11.50;4.53;;;7.50;99.90;;;;;;5068430;28;20048;-51
2024/01/31 00:08:49;;;;;;;6.00;1.98;;;7.50;99.90;;;;;;5068473;28;20048;-50
2024/01/31 00:11:14;;;;;;;12.52;4.22;;;7.50;99.90;;;;;;5067397;28;20052;-50
2024/01/31 00:13:40;;;;;;;6.55;1.40;;;7.50;99.90;;;;;;5068182;28;20167;-51
2024/01/31 00:16:06;;;;;;;3.95;1.17;;;7.50;99.90;;;;;;5067876;28;20041;-51
2024/01/31 00:18:32;;;;;;;8.60;1.85;;;7.50;99.90;;;;;;5067914;28;20043;-49
2024/01/31 00:20:57;;;;;;;3.45;1.17;;;7.60;99.90;;;;;;5068315;28;20335;-50
2024/01/31 00:23:23;;;;;;;7.05;2.28;;;7.60;99.90;;;;;;5068131;28;20118;-47
2024/01/31 00:25:50;;;;;;;4.20;1.48;;;7.50;99.90;;;;;;5068139;28;20029;-48
2024/01/31 00:28:15;;;;;;;6.55;1.98;;;7.50;99.90;;;;;;5068171;28;20044;-47
2024/01/31 00:30:41;;;;;;;4.55;1.15;;;7.50;99.90;;;;;;5068005;28;20040;-48
2024/01/31 00:33:07;;;;;;;6.65;1.88;;;7.50;99.90;;;;;;5068057;28;20037;-48
2024/01/31 00:35:32;;;;;;;5.63;1.60;;;7.50;99.90;;;;;;5067882;28;20101;-47
2024/01/31 00:37:58;;;;;;;3.97;1.10;;;7.50;99.90;;;;;;5067750;28;20083;-47
2024/01/31 00:40:23;;;;;;;4.25;1.55;;;7.50;99.90;;;;;;5067810;28;20052;-48
2024/01/31 00:42:49;;;;;;;3.95;0.90;;;7.50;99.90;;;;;;5067915;28;20194;-48
2024/01/31 00:45:15;;;;;;;2.40;1.20;;;7.50;99.90;;;;;;5068520;28;20036;-48
2024/01/31 00:47:41;;;;;;;4.90;1.25;;;7.50;99.90;;;;;;5067724;28;20044;-48
2024/01/31 00:50:07;;;;;;;5.47;1.10;;;7.50;99.90;;;;;;5066149;28;20037;-49
2024/01/31 00:52:33;;;;;;;1.95;1.00;;;7.50;99.90;;;;;;5067554;28;20029;-49
2024/01/31 00:54:58;;;;;;;2.83;0.90;;;7.40;99.90;;;;;;5067694;28;20013;-48
2024/01/31 00:57:24;;;;;;;2.05;1.00;;;7.40;99.90;;;;;;5067525;28;20195;-48
2024/01/31 00:59:50;;;;;;;2.45;1.10;;;7.40;99.90;;;;;;5067441;28;20283;-48
2024/01/31 01:02:16;;;;;;;1.73;1.00;;;7.40;99.90;;;;;;5067405;28;20032;-47
2024/01/31 01:04:42;;;;;;;3.03;0.90;;;7.40;99.90;;;;;;5067555;28;20064;-47
2024/01/31 01:07:08;;;;;;;7.22;1.10;;;7.40;99.90;;;;;;5067368;28;20024;-48
2024/01/31 01:09:34;;;;;;;5.88;1.40;;;7.50;99.90;;;;;;5067269;28;20286;-47
2024/01/31 01:12:00;;;;;;;3.10;0.98;;;7.40;99.90;;;;;;5067300;28;20032;-47
2024/01/31 01:14:25;;;;;;;4.05;0.90;;;7.40;99.90;;;;;;5066193;28;20031;-47
2024/01/31 01:16:51;;;;;;;2.85;1.55;;;7.40;99.90;;;;;;5066831;28;20226;-48
2024/01/31 01:19:17;;;;;;;7.22;1.55;;;7.40;99.90;;;;;;5067104;28;20044;-48
2024/01/31 01:21:42;;;;;;;2.90;1.33;;;7.40;99.90;;;;;;5066694;28;20035;-47
2024/01/31 01:24:08;;;;;;;3.55;1.40;;;7.40;99.90;;;;;;5066988;28;20266;-47
2024/01/31 01:26:40;;;;;;;2.70;0.98;;;7.40;99.90;;;;;;5066068;28;20099;-48
2024/01/31 01:29:06;;;;;;;6.07;1.83;;;7.40;99.90;;;;;;5066948;28;20028;-47
2024/01/31 01:31:32;;;;;;;4.10;1.30;;;7.40;99.90;;;;;;5065818;28;20197;-48
2024/01/31 01:33:59;;;;;;;4.05;1.10;;;7.40;99.90;;;;;;5066693;28;20029;-47
2024/01/31 01:36:25;;;;;;;5.15;1.23;;;7.40;99.90;;;;;;5065782;28;20087;-48
2024/01/31 01:38:51;;;;;;;2.63;1.17;;;7.40;99.90;;;;;;5065533;28;20081;-49
2024/01/31 01:41:16;;;;;;;6.63;1.75;;;7.40;99.90;;;;;;5066768;28;20041;-47
2024/01/31 01:43:42;;;;;;;4.70;1.40;;;7.40;99.90;;;;;;5066653;28;20098;-50
2024/01/31 01:46:19;;;;;;;3.78;1.17;;;7.40;99.90;;;;;;5065549;28;20222;-50
2024/01/31 01:48:45;;;;;;;7.72;1.40;;;7.40;99.90;;;;;;5066579;28;20092;-47
2024/01/31 01:51:13;;;;;;;2.75;1.20;;;7.40;99.90;;;;;;5065503;28;20033;-50
2024/01/31 01:53:39;;;;;;;4.50;1.08;;;7.40;99.90;;;;;;5065553;28;20040;-49
2024/01/31 01:56:05;;;;;;;4.07;1.20;;;7.40;99.90;;;;;;5065466;28;20287;-50
2024/01/31 01:58:32;;;;;;;4.35;1.45;;;7.40;99.90;;;;;;5065417;28;20036;-49
2024/01/31 02:01:00;;;;;;;4.32;1.00;;;7.40;99.90;;;;;;5066078;28;20040;-47
2024/01/31 02:03:26;;;;;;;2.75;1.23;;;7.40;99.90;;;;;;5066252;28;20025;-48
2024/01/31 02:05:52;;;;;;;4.65;1.30;;;7.40;99.90;;;;;;5065526;28;20029;-47
2024/01/31 02:08:18;;;;;;;4.30;1.00;;;7.40;99.90;;;;;;5065436;28;20186;-47
2024/01/31 02:10:43;;;;;;;6.47;1.40;;;7.40;99.90;;;;;;5064967;28;20110;-47
2024/01/31 02:13:09;;;;;;;5.57;1.30;;;7.40;99.90;;;;;;5066160;28;20298;-46
2024/01/31 02:15:35;;;;;;;3.03;1.05;;;7.40;99.90;;;;;;5066117;28;20202;-53
2024/01/31 02:18:00;;;;;;;4.45;1.00;;;7.40;99.90;;;;;;5065887;28;20036;-55
2024/01/31 02:20:27;;;;;;;4.38;1.30;;;7.40;99.90;;;;;;5066048;28;20095;-54
2024/01/31 02:22:53;;;;;;;4.28;1.10;;;7.50;99.90;;;;;;5066056;28;20029;-55
2024/01/31 02:25:19;;;;;;;3.72;1.00;;;7.50;99.90;;;;;;5065251;28;20035;-52
2024/01/31 02:27:44;;;;;;;7.50;1.20;;;7.50;99.90;;;;;;5066064;28;20317;-55
2024/01/31 02:30:10;;;;;;;8.40;1.45;;;7.50;99.90;;;;;;5065804;28;20032;-53
2024/01/31 02:32:36;;;;;;;5.75;1.23;;;7.50;99.90;;;;;;5065887;28;20148;-55
2024/01/31 02:35:02;;;;;;;4.85;1.10;;;7.50;99.90;;;;;;5064859;28;20048;-55
2024/01/31 02:37:27;;;;;;;4.80;1.02;;;7.40;99.90;;;;;;5065516;28;20021;-55
2024/01/31 02:39:54;;;;;;;3.97;1.20;;;7.50;99.90;;;;;;5065553;28;20105;-55
2024/01/31 02:42:19;;;;;;;4.85;1.10;;;7.50;99.90;;;;;;5065743;28;20342;-55
2024/01/31 02:44:45;;;;;;;4.18;0.88;;;7.50;99.90;;;;;;5065739;28;20028;-55
2024/01/31 02:47:10;;;;;;;4.38;1.13;;;7.40;99.90;;;;;;5065726;28;20204;-54
2024/01/31 02:49:36;;;;;;;4.30;1.00;;;7.50;99.90;;;;;;5065705;28;20064;-56
2024/01/31 02:52:02;;;;;;;5.95;1.60;;;7.50;99.90;;;;;;5064459;28;20021;-54
2024/01/31 02:54:27;;;;;;;2.08;0.82;;;7.50;99.90;;;;;;5065494;28;20029;-55
2024/01/31 02:56:53;;;;;;;6.00;1.38;;;7.50;99.90;;;;;;5064960;28;20096;-55
2024/01/31 02:59:22;;;;;;;3.80;1.30;;;7.50;99.90;;;;;;5065424;28;20029;-56
2024/01/31 03:01:49;;;;;;;1.07;0.90;;;7.50;99.90;;;;;;5065399;28;20025;-54
2024/01/31 03:04:15;;;;;;;5.43;1.10;;;7.50;99.90;;;;;;5065524;28;20044;-55
2024/01/31 03:06:40;;;;;;;5.20;1.33;;;7.50;99.90;;;;;;5065559;28;20187;-56
2024/01/31 03:09:06;;;;;;;5.43;1.40;;;7.50;99.90;;;;;;5064475;28;20198;-54
2024/01/31 03:11:32;;;;;;;6.10;1.35;;;7.50;99.90;;;;;;5065424;28;20036;-55
2024/01/31 03:13:58;;;;;;;4.15;1.10;;;7.50;99.90;;;;;;5068922;28;20275;-55
2024/01/31 03:16:24;;;;;;;7.57;1.30;;;7.50;99.90;;;;;;5068767;28;20222;-55
2024/01/31 03:18:50;;;;;;;3.95;1.08;;;7.50;99.90;;;;;;5069506;28;20033;-54
2024/01/31 03:21:15;;;;;;;3.40;1.20;;;7.50;99.90;;;;;;5069474;28;20293;-55
2024/01/31 03:23:41;;;;;;;4.40;1.40;;;7.50;99.90;;;;;;5069150;28;20029;-55
2024/01/31 03:26:06;;;;;;;7.78;1.63;;;7.50;99.90;;;;;;5068244;28;20314;-55
2024/01/31 03:28:32;;;;;;;3.75;1.35;;;7.50;99.90;;;;;;5068306;28;20028;-55
2024/01/31 03:30:58;;;;;;;6.13;1.05;;;7.50;99.90;;;;;;5069206;28;20051;-53
2024/01/31 03:33:24;;;;;;;4.25;1.17;;;7.50;99.90;;;;;;5069082;28;20036;-55
2024/01/31 03:35:49;;;;;;;3.97;1.30;;;7.50;99.90;;;;;;5069105;28;20095;-55
2024/01/31 03:38:15;;;;;;;4.55;1.30;;;7.50;99.90;;;;;;5069070;28;20016;-54
2024/01/31 03:40:40;;;;;;;5.25;1.10;;;7.50;99.90;;;;;;5069104;28;20029;-55
2024/01/31 03:43:06;;;;;;;2.97;1.17;;;7.50;99.90;;;;;;5069065;28;20025;-56
2024/01/31 03:45:32;;;;;;;3.50;1.20;;;7.50;99.90;;;;;;5068516;28;20092;-55
2024/01/31 03:47:58;;;;;;;4.20;1.33;;;7.50;99.90;;;;;;5069008;28;20044;-54
2024/01/31 03:50:23;;;;;;;4.78;1.50;;;7.50;99.90;;;;;;5068720;28;20313;-56
2024/01/31 03:52:49;;;;;;;5.30;1.40;;;7.50;99.90;;;;;;5068789;28;20032;-55
2024/01/31 03:55:15;;;;;;;6.38;1.33;;;7.50;99.90;;;;;;5068819;28;20033;-55
2024/01/31 03:57:40;;;;;;;6.03;1.30;;;7.50;99.90;;;;;;5068652;28;20060;-55
2024/01/31 04:00:08;;;;;;;3.55;1.20;;;7.50;99.90;;;;;;5068670;28;20036;-54
2024/01/31 04:02:35;;;;;;;6.15;1.35;;;7.60;99.90;;;;;;5067490;28;20195;-55
2024/01/31 04:05:01;;;;;;;3.30;1.13;;;7.60;99.90;;;;;;5067257;28;20214;-55
2024/01/31 04:07:29;;;;;;;3.55;0.98;;;7.60;99.90;;;;;;5068459;28;20033;-55
2024/01/31 04:09:55;;;;;;;7.15;1.30;;;7.60;99.90;;;;;;5068267;28;20126;-55
2024/01/31 04:12:21;;;;;;;3.28;1.25;;;7.60;99.90;;;;;;5067455;28;20283;-52
2024/01/31 04:14:46;;;;;;;4.28;1.45;;;7.60;99.90;;;;;;5068489;28;20033;-55
2024/01/31 04:17:12;;;;;;;5.32;1.58;;;7.60;99.90;;;;;;5067860;28;20060;-54
2024/01/31 04:19:38;;;;;;;8.82;1.25;;;7.60;99.90;;;;;;5068071;28;20098;-54
2024/01/31 04:22:04;;;;;;;8.63;1.63;;;7.60;99.90;;;;;;5068256;28;20029;-54
2024/01/31 04:24:29;;;;;;;3.00;0.95;;;7.60;99.90;;;;;;5068132;28;20037;-53
2024/01/31 04:26:55;;;;;;;8.65;1.30;;;7.60;99.90;;;;;;5068262;28;20136;-55
2024/01/31 04:29:21;;;;;;;4.28;1.30;;;7.60;99.90;;;;;;5067716;28;20096;-55
2024/01/31 04:31:52;;;;;;;6.43;1.17;;;7.60;99.90;;;;;;5068080;28;20033;-52
2024/01/31 04:34:20;;;;;;;4.22;1.38;;;7.60;99.90;;;;;;5067161;28;20301;-55
2024/01/31 04:36:45;;;;;;;6.07;1.30;;;7.60;99.90;;;;;;5066718;28;20025;-54
2024/01/31 04:39:11;;;;;;;7.35;1.50;;;7.60;99.90;;;;;;5067981;28;20346;-54
2024/01/31 04:41:37;;;;;;;4.85;1.25;;;7.60;99.90;;;;;;5067862;28;20036;-56
2024/01/31 04:44:03;;;;;;;4.22;1.20;;;7.60;99.90;;;;;;5067690;28;20048;-53
2024/01/31 04:46:28;;;;;;;4.05;1.05;;;7.60;99.90;;;;;;5067781;28;20053;-55
2024/01/31 04:48:54;;;;;;;5.88;1.33;;;7.60;99.90;;;;;;5067742;28;20092;-55
2024/01/31 04:51:19;;;;;;;5.70;1.13;;;7.70;99.90;;;;;;5067611;28;20016;-55
2024/01/31 04:53:45;;;;;;;5.47;1.00;;;7.60;99.90;;;;;;5067708;28;20033;-55
2024/01/31 04:56:11;;;;;;;5.03;1.45;;;7.70;99.90;;;;;;5066748;28;20193;-55
2024/01/31 04:58:37;;;;;;;7.03;1.52;;;7.60;99.90;;;;;;5067574;28;20021;-54
2024/01/31 05:01:03;;;;;;;5.57;1.27;;;7.70;99.90;;;;;;5067595;28;20036;-53
2024/01/31 05:03:29;;;;;;;5.32;1.67;;;7.60;99.90;;;;;;5067247;28;20092;-55
2024/01/31 05:05:55;;;;;;;3.97;1.10;;;7.60;99.90;;;;;;5067007;28;20021;-54
2024/01/31 05:08:21;;;;;;;6.45;1.60;;;7.70;99.90;;;;;;5067314;28;20263;-56
2024/01/31 05:10:46;;;;;;;6.95;1.33;;;7.60;99.90;;;;;;5067316;28;20036;-56
2024/01/31 05:13:12;;;;;;;4.47;1.00;;;7.70;99.90;;;;;;5067357;28;20373;-53
2024/01/31 05:15:38;;;;;;;4.95;0.98;;;7.70;99.90;;;;;;5066869;28;20021;-53
2024/01/31 05:18:04;;;;;;;8.02;1.20;;;7.70;99.90;;;;;;5067051;28;20040;-54
2024/01/31 05:20:30;;;;;;;4.70;1.45;;;7.70;99.90;;;;;;5067350;28;20163;-54
2024/01/31 05:22:58;;;;;;;3.67;1.10;;;7.70;99.90;;;;;;5067181;28;20104;-55
2024/01/31 05:25:24;;;;;;;6.55;1.42;;;7.70;99.90;;;;;;5066789;28;20025;-52
2024/01/31 05:27:50;;;;;;;5.60;1.20;;;7.70;99.90;;;;;;5067112;28;20283;-53
2024/01/31 05:30:16;;;;;;;7.35;1.40;;;7.70;99.90;;;;;;5067226;28;20047;-52
2024/01/31 05:32:41;;;;;;;6.43;1.50;;;7.70;99.90;;;;;;5066926;28;20029;-54
2024/01/31 05:35:07;;;;;;;6.50;1.20;;;7.70;99.90;;;;;;5065361;28;20021;-55
2024/01/31 05:37:33;;;;;;;2.70;0.88;;;7.70;99.90;;;;;;5066853;28;20033;-55
2024/01/31 05:39:59;;;;;;;6.07;1.40;;;7.70;99.90;;;;;;5066816;28;20029;-55
2024/01/31 05:42:24;;;;;;;8.55;1.60;;;7.70;99.90;;;;;;5066661;28;20059;-54
2024/01/31 05:44:53;;;;;;;8.88;1.35;;;7.70;99.90;;;;;;5066731;28;20036;-54
2024/01/31 05:47:22;;;;;;;7.25;1.13;;;7.70;99.90;;;;;;5066109;28;20029;-55
2024/01/31 05:49:47;;;;;;;9.63;1.67;;;7.70;99.90;;;;;;5066338;28;20368;-54
2024/01/31 05:52:13;;;;;;;3.20;1.00;;;7.70;99.90;;;;;;5065265;28;20088;-55
2024/01/31 05:54:39;;;;;;;5.97;1.20;;;7.70;99.90;;;;;;5066400;28;20051;-56
2024/01/31 05:57:05;;;;;;;5.25;1.50;;;7.70;99.90;;;;;;5066499;28;20040;-55
2024/01/31 05:59:31;;;;;;;8.18;1.38;;;7.70;99.90;;;;;;5066099;28;20041;-55
2024/01/31 06:01:57;;;;;;;6.63;1.05;;;7.70;99.90;;;;;;5066302;28;20032;-55
2024/01/31 06:04:22;;;;;;;6.85;1.80;;;7.70;99.90;;;;;;5066340;28;20032;-55
2024/01/31 06:06:48;;;;;;;7.72;1.85;;;7.70;99.90;;;;;;5066261;28;20317;-55
2024/01/31 06:09:14;;;;;;;7.10;1.38;;;7.70;99.90;;;;;;5066145;28;20171;-55
2024/01/31 06:11:39;;;;;;;3.85;1.33;;;7.70;99.90;;;;;;5065948;28;20028;-56
2024/01/31 06:14:06;;;;;;;6.53;1.67;;;7.70;99.90;;;;;;5066152;28;20052;-54
2024/01/31 06:16:32;;;;;;;5.10;1.60;;;7.80;99.90;;;;;;5065584;28;20095;-55
2024/01/31 06:19:01;;;;;;;8.65;1.58;;;7.80;99.90;;;;;;5048596;28;20036;-51
2024/01/31 06:21:27;;;;;;;5.22;1.02;;;7.80;99.90;;;;;;5066132;28;20037;-54
2024/01/31 06:23:54;;;;;;;5.65;1.40;;;7.80;99.90;;;;;;5065562;28;20097;-54
2024/01/31 06:26:20;;;;;;;5.82;1.10;;;7.80;99.90;;;;;;5064830;28;20024;-55
2024/01/31 06:28:48;;;;;;;7.57;1.45;;;7.80;99.90;;;;;;5065383;28;20184;-54
2024/01/31 06:31:24;;;;;;;13.50;2.15;;;7.80;99.90;;;;;;5065907;28;20021;-54
2024/01/31 06:33:49;;;;;;;6.35;1.50;;;7.80;99.90;;;;;;5064606;28;20039;-54
2024/01/31 06:36:15;;;;;;;7.75;1.42;;;7.80;99.90;;;;;;5065663;28;20209;-54
2024/01/31 06:38:41;;;;;;;5.35;1.65;;;7.80;99.90;;;;;;5065735;28;20052;-55
2024/01/31 06:41:07;;;;;;;7.05;1.92;;;7.80;99.90;;;;;;5065669;28;20039;-55
2024/01/31 06:43:33;;;;;;;5.40;1.40;;;7.80;99.90;;;;;;5065426;28;20021;-55
2024/01/31 06:45:58;;;;;;;6.60;2.00;;;7.80;99.90;;;;;;5065560;28;20186;-55
2024/01/31 06:48:24;;;;;;;10.40;2.08;;;7.90;99.90;;;;;;5064689;28;20076;-54
2024/01/31 06:50:50;;;;;;;5.00;1.30;;;7.90;99.90;;;;;;5065488;28;20036;-54
2024/01/31 06:53:16;;;;;;;11.23;1.63;;;7.90;99.90;;;;;;5064594;28;20021;-54
2024/01/31 06:55:41;;;;;;;7.93;1.95;;;7.90;99.90;;;;;;5064633;28;20048;-55
2024/01/31 06:58:07;;;;;;;4.47;1.63;;;7.90;99.90;;;;;;5064529;28;20087;-55
2024/01/31 07:00:32;;;;;;;6.47;1.48;;;7.90;99.90;;;;;;5065602;28;20147;-55
2024/01/31 07:02:58;;;;;;;7.88;1.63;;;7.90;99.90;;;;;;5065517;28;20025;-54
2024/01/31 07:05:24;;;;;;;4.45;1.65;;;7.90;99.90;;;;;;5065300;28;20186;-54
2024/01/31 07:07:50;;;;;;;6.97;1.73;;;8.00;99.90;;;;;;5065390;28;20093;-53
2024/01/31 07:10:16;;;;;;;11.18;1.80;;;8.00;99.90;;;;;;5065120;28;20024;-55
2024/01/31 07:12:41;;;;;;;7.28;1.90;;;8.00;99.90;;;;;;5064976;28;20206;-55
2024/01/31 07:15:07;;;;;;;10.85;1.98;;;8.00;99.90;;;;;;5064867;28;20029;-54
2024/01/31 07:17:33;;;;;;;8.18;2.95;;;8.00;99.90;;;;;;5064939;28;20065;-55
2024/01/31 07:19:59;;;;;;;7.35;2.10;;;8.00;99.90;;;;;;5065045;28;20086;-55
2024/01/31 07:22:25;;;;;;;9.63;2.53;;;8.00;99.90;;;;;;5064238;28;20063;-54
2024/01/31 07:24:50;;;;;;;6.55;1.80;;;8.00;99.90;;;;;;5065438;28;20025;-55
2024/01/31 07:27:16;;;;;;;7.72;1.92;;;8.00;99.90;;;;;;5065213;28;20036;-53
2024/01/31 07:29:48;;;;;;;5.72;1.90;;;8.00;99.90;;;;;;5065242;28;20043;-55
2024/01/31 07:32:14;;;;;;;5.15;1.50;;;8.00;99.90;;;;;;5048047;28;20021;-54
2024/01/31 07:34:39;;;;;;;4.45;1.40;;;8.00;99.90;;;;;;5064057;28;20044;-54
2024/01/31 07:37:05;;;;;;;5.32;1.65;;;8.00;99.90;;;;;;5065078;28;20025;-53
2024/01/31 07:39:31;;;;;;;11.65;2.25;;;8.00;99.90;;;;;;5064983;28;20075;-54
2024/01/31 07:41:57;;;;;;;11.27;2.70;;;8.00;99.90;;;;;;5064777;28;20033;-56
2024/01/31 07:44:22;;;;;;;6.93;1.75;;;8.10;99.90;;;;;;5063665;28;20095;-55
2024/01/31 07:46:48;;;;;;;6.30;2.10;;;8.10;99.90;;;;;;5064507;28;20035;-55
2024/01/31 07:49:14;;;;;;;7.00;2.17;;;8.10;99.90;;;;;;5064867;28;20033;-55
2024/01/31 07:51:43;;;;;;;5.40;1.35;;;8.10;99.90;;;;;;5064813;28;20039;-55
2024/01/31 07:54:09;;;;;;;8.02;1.40;;;8.10;99.90;;;;;;5047373;28;20013;-54
2024/01/31 07:56:34;;;;;;;9.95;2.03;;;8.10;99.90;;;;;;5064881;28;20198;-54
2024/01/31 07:59:00;;;;;;;10.70;2.33;;;8.10;99.90;;;;;;5066337;28;20283;-54
2024/01/31 08:01:26;;;;;;;7.97;1.40;;;8.10;99.90;;;;;;5068454;28;20025;-54
2024/01/31 08:03:52;;;;;;;6.38;1.60;;;8.10;99.90;;;;;;5068479;28;20040;-55
2024/01/31 08:06:18;;;;;;;7.18;2.20;;;8.20;99.90;;;;;;5068333;28;20324;-55
2024/01/31 08:08:45;;;;;;;13.85;1.92;;;8.20;99.90;;;;;;5068186;28;20049;-54
2024/01/31 08:11:11;;;;;;;6.70;1.83;;;8.20;99.90;;;;;;5068417;28;20033;-52
2024/01/31 08:13:39;;;;;;;8.10;1.67;;;8.20;99.90;;;;;;5068168;28;20013;-56
2024/01/31 08:16:06;;;;;;;8.57;2.08;;;8.20;99.90;;;;;;5066966;28;20345;-55
2024/01/31 08:18:31;;;;;;;9.57;2.00;;;8.20;99.90;;;;;;5068180;28;20107;-56
2024/01/31 08:20:57;;;;;;;9.95;2.35;;;8.20;99.90;;;;;;5067123;28;20286;-56
2024/01/31 08:23:23;;;;;;;16.48;3.70;;;8.30;99.90;;;;;;5067735;28;20036;-55
2024/01/31 08:25:49;;;;;;;12.05;1.90;;;8.30;99.90;;;;;;5067988;28;20037;-55
2024/01/31 08:28:15;;;;;;;11.30;2.72;;;8.30;99.90;;;;;;5050133;28;20178;-55
2024/01/31 08:30:40;;;;;;;15.98;2.92;;;8.30;99.90;;;;;;5066893;28;20024;-55
2024/01/31 08:33:06;;;;;;;13.00;2.63;;;8.30;99.90;;;;;;5066928;28;20028;-54
2024/01/31 08:35:32;;;;;;;10.25;2.40;;;8.30;99.90;;;;;;5068073;28;20213;-55
2024/01/31 08:37:58;;;;;;;10.20;1.95;;;8.30;99.90;;;;;;5067473;28;20020;-54
2024/01/31 08:40:23;;;;;;;9.85;2.50;;;8.30;99.90;;;;;;5067582;28;20036;-56
2024/01/31 08:42:49;;;;;;;8.65;1.63;;;8.30;99.90;;;;;;5066170;28;20155;-54
2024/01/31 08:45:15;;;;;;;13.32;2.65;;;8.40;99.90;;;;;;5067314;28;20035;-55
2024/01/31 08:47:41;;;;;;;13.38;2.22;;;8.40;99.90;;;;;;5067113;28;20037;-54
2024/01/31 08:50:07;;;;;;;15.73;3.00;;;8.40;99.90;;;;;;5067281;28;20033;-55
2024/01/31 08:52:34;;;;;;;7.07;1.55;;;8.50;99.90;;;;;;5067042;28;20263;-55
2024/01/31 08:54:59;;;;;;;10.55;2.17;;;8.50;99.90;;;;;;5067381;28;20043;-55
2024/01/31 08:57:25;;;;;;;9.75;2.42;;;8.50;99.90;;;;;;5067234;28;20271;-54
2024/01/31 08:59:51;;;;;;;13.57;2.55;;;8.60;99.90;;;;;;5067308;28;20043;-55
2024/01/31 09:02:16;;;;;;;18.05;3.47;;;8.60;99.90;;;;;;5067299;28;20065;-55
2024/01/31 09:04:42;;;;;;;7.15;2.40;;;8.60;99.90;;;;;;5067222;28;20031;-55
2024/01/31 09:07:08;;;;;;;10.55;2.10;;;8.60;99.90;;;;;;5066751;28;20052;-54
2024/01/31 09:09:38;;;;;;;9.98;2.50;;;8.60;99.90;;;;;;5066351;28;20083;-55
2024/01/31 09:12:05;;;;;;;6.60;1.80;;;8.60;99.90;;;;;;5067012;28;20025;-54
2024/01/31 09:14:31;;;;;;;16.70;3.00;;;8.70;99.90;;;;;;5067164;28;20074;-55
2024/01/31 09:16:57;;;;;;;11.85;2.47;;;8.70;99.90;;;;;;5066523;28;20080;-54
2024/01/31 09:19:23;;;;;;;5.68;1.52;;;8.70;99.90;;;;;;5067028;28;20069;-56
2024/01/31 09:21:48;;;;;;;33.38;3.53;;;8.70;99.90;;;;;;5066862;28;20044;-56
2024/01/31 09:24:14;;;;;;;7.30;1.90;;;8.70;99.90;;;;;;5066487;28;20116;-55
2024/01/31 09:26:40;;;;;;;12.50;2.40;;;8.70;99.90;;;;;;5066755;28;20024;-55
2024/01/31 09:29:05;;;;;;;10.38;2.05;;;8.70;99.90;;;;;;5049118;28;20036;-53
2024/01/31 09:31:31;;;;;;;8.95;2.30;;;8.70;99.90;;;;;;5066470;28;20175;-52
2024/01/31 09:33:57;;;;;;;15.45;2.55;;;8.70;99.90;;;;;;5065845;28;20047;-53
2024/01/31 09:36:23;;;;;;;10.02;2.00;;;8.70;99.90;;;;;;5066552;28;20028;-54
2024/01/31 09:38:49;;;;;;;7.65;2.05;;;8.70;99.90;;;;;;5066150;28;20044;-54
2024/01/31 09:41:16;;;;;;;9.75;2.08;;;8.80;99.90;;;;;;5066631;28;20029;-54
2024/01/31 09:43:45;;;;;;;4.63;1.58;;;8.80;99.90;;;;;;5066380;28;20305;-54
2024/01/31 09:46:11;;;;;;;8.55;2.10;;;8.90;99.90;;;;;;5065316;28;20100;-55
2024/01/31 09:48:37;;;;;;;5.70;2.15;;;8.90;99.90;;;;;;5048995;28;20028;-55
2024/01/31 09:51:02;;;;;;;7.47;1.90;;;8.90;99.90;;;;;;5066312;28;20107;-55
2024/01/31 09:53:33;;;;;;;10.43;2.22;;;8.90;99.90;;;;;;5066388;28;20279;-55
2024/01/31 09:55:58;;;;;;;12.10;1.92;;;9.00;99.90;;;;;;5065222;28;20027;-54
2024/01/31 09:58:24;;;;;;;7.75;1.90;;;9.00;99.90;;;;;;5066670;28;20084;-54
2024/01/31 10:00:50;;;;;;;12.55;2.72;;;9.00;99.90;;;;;;5066937;28;20037;-54
2024/01/31 10:03:16;;;;;;;14.77;2.45;;;9.10;99.90;;;;;;5066224;28;20081;-54
2024/01/31 10:05:42;;;;;;;13.80;2.65;;;9.10;99.90;;;;;;5066285;28;20315;-55
2024/01/31 10:08:08;;;;;;;6.28;1.83;;;9.10;99.90;;;;;;5065811;28;20168;-54
2024/01/31 10:10:33;;;;;;;8.95;2.60;;;9.10;99.90;;;;;;5065536;28;20031;-55
2024/01/31 10:12:59;;;;;;;14.82;2.70;;;9.20;99.90;;;;;;5065942;28;20235;-55
2024/01/31 10:15:25;;;;;;;4.05;1.42;;;9.30;99.90;;;;;;5065848;28;20094;-55
2024/01/31 10:17:52;;;;;;;9.48;1.98;;;9.30;99.90;;;;;;5065461;28;20112;-55
2024/01/31 10:20:18;;;;;;;10.05;2.03;;;9.20;99.90;;;;;;5064632;28;20040;-55
2024/01/31 10:22:44;;;;;;;13.45;2.20;;;9.20;99.90;;;;;;5064699;28;20196;-54
2024/01/31 10:25:11;;;;;;;7.15;2.78;;;9.20;99.90;;;;;;5064691;28;20048;-55
2024/01/31 10:27:36;;;;;;;8.77;2.92;;;9.20;99.90;;;;;;5064387;28;20042;-54
2024/01/31 10:30:07;;;;;;;9.82;2.22;;;9.20;99.90;;;;;;5065361;28;20251;-55
2024/01/31 10:32:38;;;;;;;9.55;2.22;;;9.30;99.90;;;;;;5065669;28;20029;-57
2024/01/31 10:35:04;;;;;;;9.75;2.10;;;9.30;99.90;;;;;;5049183;28;20234;-55
2024/01/31 10:37:30;;;;;;;9.13;1.80;;;9.30;99.90;;;;;;5064712;28;20170;-55
2024/01/31 10:39:56;;;;;;;7.03;2.28;;;9.30;99.90;;;;;;5065369;28;20289;-55
2024/01/31 10:42:22;;;;;;;6.70;1.65;;;9.30;99.90;;;;;;5064995;28;20033;-54
2024/01/31 10:44:48;;;;;;;9.85;2.20;;;9.30;99.90;;;;;;5064276;28;20278;-55
2024/01/31 10:47:14;;;;;;;8.20;1.80;;;9.30;99.90;;;;;;5065422;28;20036;-54
2024/01/31 10:49:40;;;;;;;6.53;1.42;;;9.30;99.90;;;;;;5065067;28;20037;-54
2024/01/31 10:52:07;;;;;;;6.15;1.50;;;9.40;99.90;;;;;;5065320;28;20040;-55
2024/01/31 10:54:34;;;;;;;7.18;1.75;;;9.50;99.90;;;;;;5065347;28;20028;-55
2024/01/31 10:57:00;;;;;;;9.73;1.98;;;9.50;99.90;;;;;;5031480;28;20029;-55
2024/01/31 10:59:26;;;;;;;8.25;2.03;;;9.60;99.90;;;;;;5063991;28;20040;-56
2024/01/31 11:01:55;;;;;;;6.43;1.90;;;9.70;99.90;;;;;;5065296;28;20021;-55
2024/01/31 11:04:23;;;;;;;11.05;2.67;;;9.80;99.90;;;;;;5065125;28;20087;-56
2024/01/31 11:06:52;;;;;;;8.15;1.92;;;10.00;99.90;;;;;;5065213;28;20058;-55
2024/01/31 11:09:22;;;;;;;10.13;2.88;;;10.10;99.90;;;;;;5064128;28;20254;-55
2024/01/31 11:12:00;;;;;;;14.30;2.40;;;10.20;99.90;;;;;;5064085;28;20041;-55
2024/01/31 11:14:29;;;;;;;16.38;2.30;;;10.30;99.90;;;;;;5064671;28;20017;-54
2024/01/31 11:17:07;;;;;;;9.68;2.53;;;10.40;99.90;;;;;;5063717;28;20183;-52
2024/01/31 11:19:37;;;;;;;13.90;4.80;;;10.60;99.90;;;;;;5065027;28;20091;-55
2024/01/31 11:22:03;;;;;;;10.27;4.57;;;10.70;99.90;;;;;;5063934;28;20039;-53
2024/01/31 11:24:29;;;;;;;8.50;3.35;;;10.80;99.90;;;;;;5064989;28;20031;-56
2024/01/31 11:26:57;;;;;;;21.35;9.32;;;10.80;99.90;;;;;;5064819;28;20078;-55
2024/01/31 11:29:23;;;;;;;15.63;7.40;;;10.80;99.90;;;;;;5063631;28;20195;-57
2024/01/31 11:31:49;;;;;;;14.80;5.57;;;10.80;99.90;;;;;;5064154;28;20386;-55
2024/01/31 11:34:15;;;;;;;14.75;6.03;;;10.90;99.90;;;;;;5066338;28;20044;-55
2024/01/31 11:36:40;;;;;;;22.70;7.93;;;11.00;99.90;;;;;;5068752;28;20037;-55
2024/01/31 11:39:07;;;;;;;13.25;4.85;;;11.20;99.90;;;;;;5068744;28;20048;-56
2024/01/31 11:41:33;;;;;;;11.90;3.70;;;11.00;99.90;;;;;;5068736;28;20029;-54
2024/01/31 11:43:58;;;;;;;18.25;5.75;;;10.90;99.90;;;;;;5068136;28;20151;-55
2024/01/31 11:46:24;;;;;;;11.98;2.85;;;10.80;99.90;;;;;;5068022;28;20215;-54
2024/01/31 11:48:53;;;;;;;9.50;3.22;;;10.70;99.90;;;;;;5067539;28;20025;-54
2024/01/31 11:51:19;;;;;;;11.93;2.88;;;10.50;99.90;;;;;;5068370;28;20028;-56
2024/01/31 11:53:45;;;;;;;19.27;6.32;;;10.50;99.90;;;;;;5068429;28;20083;-54
2024/01/31 11:56:11;;;;;;;12.27;3.40;;;10.60;99.90;;;;;;5068381;28;20032;-54
2024/01/31 11:58:37;;;;;;;8.82;2.20;;;10.70;99.90;;;;;;5067365;28;20056;-54
2024/01/31 12:01:04;;;;;;;33.70;16.35;;;10.60;99.90;;;;;;5051654;28;20283;-54
2024/01/31 12:03:30;;;;;;;23.17;11.25;;;10.80;99.90;;;;;;5050560;28;20086;-54
2024/01/31 12:05:57;;;;;;;12.75;3.63;;;10.80;99.90;;;;;;5067169;28;20034;-54
2024/01/31 12:08:26;;;;;;;9.80;2.80;;;10.70;99.90;;;;;;5067934;28;20028;-54
2024/01/31 12:10:54;;;;;;;7.10;2.00;;;10.60;99.90;;;;;;5068014;28;20029;-54
2024/01/31 12:13:20;;;;;;;15.65;2.35;;;10.40;99.90;;;;;;5067618;28;20078;-54
2024/01/31 12:15:47;;;;;;;5.85;2.10;;;10.40;99.90;;;;;;5067370;28;20016;-54
2024/01/31 12:18:14;;;;;;;9.93;3.13;;;10.40;99.90;;;;;;5066595;28;20033;-54
2024/01/31 12:20:39;;;;;;;14.18;2.42;;;10.40;99.90;;;;;;5067688;28;20032;-54
2024/01/31 12:23:05;;;;;;;18.02;8.48;;;10.40;99.90;;;;;;5067830;28;20088;-54
2024/01/31 12:25:30;;;;;;;12.40;2.53;;;10.40;99.90;;;;;;5067653;28;20025;-54
2024/01/31 12:27:56;;;;;;;10.60;2.28;;;10.30;99.90;;;;;;5066762;28;20041;-56
2024/01/31 12:30:22;;;;;;;13.07;2.63;;;10.20;99.90;;;;;;5066482;28;20139;-53
2024/01/31 12:32:47;;;;;;;9.60;2.17;;;10.20;99.90;;;;;;5067629;28;20086;-55
2024/01/31 12:35:13;;;;;;;10.50;2.65;;;10.10;99.90;;;;;;5067074;28;20037;-53
2024/01/31 12:37:39;;;;;;;7.20;2.20;;;10.20;99.90;;;;;;5067282;28;20036;-54
2024/01/31 12:40:08;;;;;;;6.90;2.42;;;10.20;99.90;;;;;;5067460;28;20024;-53
2024/01/31 12:42:33;;;;;;;11.90;2.50;;;10.20;99.90;;;;;;5067271;28;20234;-54
2024/01/31 12:44:59;;;;;;;19.25;7.15;;;10.20;99.90;;;;;;5065910;28;20025;-53
2024/01/31 12:47:25;;;;;;;12.82;4.28;;;10.10;99.90;;;;;;5067375;28;20059;-54